Time;durP1;ratioP1;P1;durP2;ratioP2;P2;SDS_P1;SDS_P2;PMS_P1;PMS_P2;Temp;Humidity;BMP_temperature;BMP_pressure;BME280_temperature;BME280_humidity;BME280_pressure;Samples;Min_cycle;Max_cycle;Signal;HPM_P1;HPM_P2
2021/10/05 00:01:32;;;;;;;30.32;16.60;;;;;;;8.55;69.07;102332.11;1708773;84;20885;-79
2021/10/05 00:04:00;;;;;;;27.27;16.32;;;;;;;8.45;69.01;102329.72;1708537;84;20858;-81
2021/10/05 00:06:27;;;;;;;30.62;17.70;;;;;;;8.34;69.05;102328.19;1708813;83;20968;-80
2021/10/05 00:08:54;;;;;;;27.30;16.77;;;;;;;8.20;69.20;102336.36;1708489;84;21015;-80
2021/10/05 00:11:21;;;;;;;26.95;16.07;;;;;;;8.08;69.35;102333.12;1708574;84;22144;-79
2021/10/05 00:13:49;;;;;;;27.40;17.37;;;;;;;7.97;69.56;102324.66;1708481;84;21414;-79
2021/10/05 00:16:16;;;;;;;31.45;16.80;;;;;;;7.86;69.83;102324.89;1708532;83;21414;-80
2021/10/05 00:18:43;;;;;;;27.73;16.50;;;;;;;7.80;70.06;102328.07;1708377;83;20902;-80
2021/10/05 00:21:10;;;;;;;34.63;17.25;;;;;;;7.74;70.28;102321.24;1708701;84;20936;-78
2021/10/05 00:23:38;;;;;;;27.45;16.07;;;;;;;7.68;70.42;102329.20;1708600;84;21583;-79
2021/10/05 00:26:05;;;;;;;36.80;17.65;;;;;;;7.64;70.56;102327.53;1712186;83;21563;-79
2021/10/05 00:28:33;;;;;;;32.03;17.85;;;;;;;7.60;70.60;102329.78;1713912;83;20960;-79
2021/10/05 00:31:00;;;;;;;30.27;17.50;;;;;;;7.54;70.61;102329.93;1713975;83;20901;-78
2021/10/05 00:33:27;;;;;;;37.20;19.90;;;;;;;7.48;70.60;102335.66;1714423;83;20904;-77
2021/10/05 00:35:54;;;;;;;39.95;20.68;;;;;;;7.42;70.67;102326.64;1714098;83;21568;-79
2021/10/05 00:38:21;;;;;;;35.48;18.95;;;;;;;7.37;70.81;102337.63;1714079;83;20897;-78
2021/10/05 00:40:47;;;;;;;39.10;21.68;;;;;;;7.33;71.04;102337.26;1714056;83;21039;-79
2021/10/05 00:43:14;;;;;;;38.53;21.82;;;;;;;7.32;71.21;102335.55;1714284;83;21030;-79
2021/10/05 00:45:41;;;;;;;40.35;23.55;;;;;;;7.32;71.46;102342.08;1714134;83;20964;-79
2021/10/05 00:48:08;;;;;;;37.55;23.10;;;;;;;7.34;71.58;102343.36;1714045;83;21123;-79
2021/10/05 00:50:35;;;;;;;37.33;24.10;;;;;;;7.35;71.65;102347.23;1714068;83;21509;-79
2021/10/05 00:53:02;;;;;;;41.85;22.90;;;;;;;7.36;71.60;102338.53;1714109;83;20893;-80
2021/10/05 00:55:29;;;;;;;45.58;23.30;;;;;;;7.36;71.64;102339.83;1713980;83;20877;-79
2021/10/05 00:57:56;;;;;;;42.65;21.90;;;;;;;7.35;71.65;102335.94;1714191;83;20956;-81
2021/10/05 01:00:24;;;;;;;38.30;21.00;;;;;;;7.34;71.66;102342.91;1714163;83;21551;-81
2021/10/05 01:02:51;;;;;;;38.28;20.27;;;;;;;7.35;71.77;102341.16;1714116;83;20905;-80
2021/10/05 01:05:18;;;;;;;42.05;21.33;;;;;;;7.35;71.90;102342.01;1714111;83;20881;-81
2021/10/05 01:07:48;;;;;;;31.02;20.32;;;;;;;7.36;72.08;102343.75;1714083;83;21035;-80
2021/10/05 01:10:17;;;;;;;34.63;22.10;;;;;;;7.38;72.29;102341.97;1714032;83;20933;-79
2021/10/05 01:12:48;;;;;;;25.88;15.60;;;;;;;7.44;72.36;102339.67;1714025;83;21121;-79
2021/10/05 01:15:18;;;;;;;18.67;12.15;;;;;;;7.51;73.10;102339.96;1714198;83;20925;-79
2021/10/05 01:17:45;;;;;;;15.43;11.83;;;;;;;7.59;73.63;102338.07;1714293;83;21512;-78
2021/10/05 01:20:13;;;;;;;22.20;12.63;;;;;;;7.69;73.74;102346.56;1714411;83;20964;-78
2021/10/05 01:22:40;;;;;;;14.43;10.58;;;;;;;7.76;74.05;102341.66;1711534;83;21382;-78
2021/10/05 01:25:12;;;;;;;16.20;9.73;;;;;;;7.85;74.35;102337.55;1714274;83;21173;-78
2021/10/05 01:27:48;;;;;;;16.35;10.60;;;;;;;7.96;74.47;102333.83;1714318;83;20925;-78
2021/10/05 01:30:16;;;;;;;13.25;9.70;;;;;;;8.07;74.64;102342.29;1714551;83;21378;-78
2021/10/05 01:32:43;;;;;;;14.78;11.63;;;;;;;8.19;74.62;102343.34;1714063;83;20932;-78
2021/10/05 01:35:11;;;;;;;14.50;10.95;;;;;;;8.33;74.55;102344.78;1714238;83;20889;-79
2021/10/05 01:37:38;;;;;;;15.70;11.83;;;;;;;8.42;74.35;102345.45;1714197;83;21570;-78
2021/10/05 01:40:07;;;;;;;14.98;10.68;;;;;;;8.50;74.19;102346.14;1715372;83;21484;-77
2021/10/05 01:42:35;;;;;;;19.35;11.68;;;;;;;8.60;73.91;102352.46;1715417;83;20999;-77
2021/10/05 01:45:02;;;;;;;14.45;11.78;;;;;;;8.66;73.64;102356.24;1715306;83;21398;-78
2021/10/05 01:47:31;;;;;;;20.20;11.97;;;;;;;8.69;73.43;102358.35;1715502;83;21461;-78
2021/10/05 01:49:57;;;;;;;14.40;10.85;;;;;;;8.75;73.25;102361.70;1717012;83;21070;-79
2021/10/05 01:52:24;;;;;;;17.37;11.08;;;;;;;8.79;73.16;102360.28;1716286;83;20972;-79
2021/10/05 01:54:51;;;;;;;14.18;10.45;;;;;;;8.85;73.17;102367.14;1716720;83;20936;-78
2021/10/05 01:57:18;;;;;;;16.70;10.82;;;;;;;8.92;73.01;102362.16;1717019;83;20925;-79
2021/10/05 01:59:45;;;;;;;14.78;11.33;;;;;;;8.98;72.99;102363.31;1717388;83;20945;-78
2021/10/05 02:02:11;;;;;;;22.30;11.33;;;;;;;9.00;72.80;102368.03;1716416;83;21104;-79
2021/10/05 02:04:40;;;;;;;17.15;12.03;;;;;;;9.07;72.54;102370.93;1715154;83;20921;-79
2021/10/05 02:07:07;;;;;;;16.48;11.65;;;;;;;9.10;72.42;102370.84;1715576;83;20960;-78
2021/10/05 02:09:35;;;;;;;19.37;11.90;;;;;;;9.13;72.20;102372.51;1716210;83;20956;-79
2021/10/05 02:12:02;;;;;;;18.35;12.07;;;;;;;9.15;72.01;102373.33;1717263;83;20937;-78
2021/10/05 02:14:29;;;;;;;18.80;11.22;;;;;;;9.18;71.93;102382.86;1717462;81;21103;-78
2021/10/05 02:16:56;;;;;;;19.45;11.88;;;;;;;9.20;72.00;102383.23;1717577;81;20956;-77
2021/10/05 02:19:22;;;;;;;20.57;11.03;;;;;;;9.22;71.98;102385.36;1716612;83;20900;-77
2021/10/05 02:21:49;;;;;;;18.98;11.63;;;;;;;9.28;72.07;102389.59;1715648;83;21003;-78
2021/10/05 02:26:45;;;;;;;16.80;11.83;;;;;;;9.38;71.96;102392.81;1714935;83;21130;-78
2021/10/05 02:29:12;;;;;;;17.27;11.55;;;;;;;9.43;71.80;102393.58;1714932;83;20901;-79
2021/10/05 02:31:39;;;;;;;18.92;12.37;;;;;;;9.46;71.66;102393.02;1714913;83;20933;-77
2021/10/05 02:34:06;;;;;;;16.90;12.05;;;;;;;9.48;71.44;102392.98;1714986;83;20980;-78
2021/10/05 02:36:33;;;;;;;19.02;12.55;;;;;;;9.48;71.34;102395.61;1714983;83;20949;-78
2021/10/05 02:39:00;;;;;;;19.52;12.20;;;;;;;9.50;71.32;102397.73;1714863;83;21377;-78
2021/10/05 02:41:26;;;;;;;18.00;12.63;;;;;;;9.50;71.27;102397.28;1714749;83;20925;-79
2021/10/05 02:43:53;;;;;;;14.58;9.63;;;;;;;9.52;71.32;102398.56;1714279;83;21396;-78
2021/10/05 02:46:20;;;;;;;13.95;11.65;;;;;;;9.54;71.24;102399.37;1714455;83;20913;-79
2021/10/05 02:48:47;;;;;;;14.13;10.75;;;;;;;9.57;71.16;102402.36;1714203;83;20905;-78
2021/10/05 02:51:13;;;;;;;15.30;11.10;;;;;;;9.59;71.07;102404.03;1714119;83;21156;-78
2021/10/05 02:53:40;;;;;;;15.65;11.28;;;;;;;9.61;70.91;102407.47;1714192;83;21347;-78
2021/10/05 02:56:07;;;;;;;13.22;11.60;;;;;;;9.64;70.73;102406.52;1714171;83;21139;-78
2021/10/05 02:58:34;;;;;;;18.00;12.33;;;;;;;9.64;70.65;102407.38;1714404;83;20981;-78
2021/10/05 03:01:01;;;;;;;13.22;10.95;;;;;;;9.64;70.42;102403.45;1714240;83;20889;-78
2021/10/05 03:03:28;;;;;;;15.80;11.30;;;;;;;9.63;70.31;102403.05;1714251;83;21109;-79
2021/10/05 03:05:55;;;;;;;13.90;10.88;;;;;;;9.63;70.25;102406.98;1714079;83;21039;-79
2021/10/05 03:08:24;;;;;;;13.60;11.25;;;;;;;9.63;70.31;102406.13;1714053;83;20903;-79
2021/10/05 03:10:50;;;;;;;17.10;11.80;;;;;;;9.63;70.34;102397.81;1714040;83;20928;-78
2021/10/05 03:13:17;;;;;;;14.87;11.20;;;;;;;9.65;70.40;102401.68;1714321;83;20901;-78
2021/10/05 03:15:45;;;;;;;14.58;11.63;;;;;;;9.67;70.41;102404.69;1714170;83;21156;-81
2021/10/05 03:18:12;;;;;;;16.57;11.10;;;;;;;9.69;70.21;102402.89;1714375;83;21362;-79
2021/10/05 03:20:38;;;;;;;18.35;12.13;;;;;;;9.71;70.17;102404.14;1714294;83;20921;-80
2021/10/05 03:23:05;;;;;;;21.93;12.65;;;;;;;9.71;70.09;102410.23;1714443;83;21452;-80
2021/10/05 03:25:32;;;;;;;18.07;11.78;;;;;;;9.71;70.14;102403.68;1713988;83;20936;-80
2021/10/05 03:27:59;;;;;;;18.07;12.78;;;;;;;9.69;70.04;102406.82;1708619;83;21457;-80
2021/10/05 03:30:26;;;;;;;22.82;12.75;;;;;;;9.69;70.05;102407.25;1708464;83;21036;-80
2021/10/05 03:32:53;;;;;;;19.27;13.65;;;;;;;9.66;70.13;102412.13;1708633;84;21366;-80
2021/10/05 03:35:20;;;;;;;17.35;11.88;;;;;;;9.65;70.35;102415.66;1708497;84;20917;-81
2021/10/05 03:37:47;;;;;;;18.12;12.50;;;;;;;9.65;70.46;102410.42;1708473;84;20945;-80
2021/10/05 03:40:14;;;;;;;16.10;12.20;;;;;;;9.66;70.62;102420.45;1708662;83;21138;-80
2021/10/05 03:42:41;;;;;;;18.75;12.25;;;;;;;9.66;70.66;102419.13;1708326;84;20941;-80
2021/10/05 03:45:09;;;;;;;16.77;11.88;;;;;;;9.67;70.60;102417.80;1708471;84;21397;-77
2021/10/05 03:47:37;;;;;;;15.32;11.93;;;;;;;9.68;70.51;102425.19;1708423;84;20996;-78
2021/10/05 03:50:06;;;;;;;18.92;12.90;;;;;;;9.68;70.42;102430.43;1708478;84;20865;-79
2021/10/05 03:52:33;;;;;;;22.93;12.95;;;;;;;9.66;70.38;102428.30;1708509;84;21109;-79
2021/10/05 03:55:00;;;;;;;19.90;13.13;;;;;;;9.66;70.32;102432.23;1708374;84;20897;-80
2021/10/05 03:57:27;;;;;;;17.12;13.20;;;;;;;9.66;70.39;102430.92;1708454;83;21055;-80
2021/10/05 03:59:54;;;;;;;18.60;11.90;;;;;;;9.65;70.32;102426.56;1708508;84;21032;-79
2021/10/05 04:02:21;;;;;;;16.90;12.28;;;;;;;9.65;70.41;102430.50;1708504;84;20882;-80
2021/10/05 04:04:49;;;;;;;18.55;11.63;;;;;;;9.66;70.46;102430.92;1708445;84;21146;-81
2021/10/05 04:07:16;;;;;;;18.65;12.45;;;;;;;9.68;70.38;102436.98;1708890;84;20916;-80
2021/10/05 04:09:43;;;;;;;21.48;13.60;;;;;;;9.69;70.45;102438.26;1708669;83;21430;-80
2021/10/05 04:12:10;;;;;;;17.92;12.53;;;;;;;9.71;70.45;102441.66;1708507;84;20948;-78
2021/10/05 04:14:38;;;;;;;19.80;13.05;;;;;;;9.73;70.36;102446.87;1708722;84;20995;-79
2021/10/05 04:17:04;;;;;;;19.70;13.00;;;;;;;9.74;70.35;102444.68;1708464;83;21150;-79
2021/10/05 04:19:32;;;;;;;23.60;13.50;;;;;;;9.77;70.32;102454.22;1708562;83;20964;-80
2021/10/05 04:21:59;;;;;;;17.00;11.93;;;;;;;9.76;70.27;102448.13;1708524;83;20913;-80
2021/10/05 04:24:26;;;;;;;17.85;11.45;;;;;;;9.77;70.30;102441.11;1708483;83;20949;-80
2021/10/05 04:26:53;;;;;;;19.82;12.37;;;;;;;9.79;70.16;102447.17;1708115;83;20897;-79
2021/10/05 04:29:28;;;;;;;16.82;10.88;;;;;;;9.81;70.29;102449.30;1708739;84;21564;-80
2021/10/05 04:32:18;;;;;;;15.70;11.00;;;;;;;9.86;70.25;102453.95;1702929;84;20944;-80
2021/10/05 04:34:47;;;;;;;18.10;11.80;;;;;;;9.92;70.04;102455.11;1708412;83;20956;-80
2021/10/05 04:37:13;;;;;;;16.77;11.33;;;;;;;9.98;70.10;102450.13;1708752;84;20958;-79
2021/10/05 04:39:41;;;;;;;15.70;11.05;;;;;;;10.06;69.79;102454.72;1708788;84;21406;-80
2021/10/05 04:42:08;;;;;;;21.55;13.43;;;;;;;10.15;69.65;102455.76;1709148;83;21112;-81
2021/10/05 04:44:37;;;;;;;19.12;11.97;;;;;;;10.27;69.38;102456.73;1709041;84;20932;-80
2021/10/05 04:47:08;;;;;;;20.27;12.00;;;;;;;10.39;68.90;102452.91;1708421;84;20921;-80
2021/10/05 04:49:36;;;;;;;18.02;11.75;;;;;;;10.50;68.18;102457.37;1708496;83;21434;-80
2021/10/05 04:52:03;;;;;;;19.98;11.78;;;;;;;10.60;67.94;102457.09;1708841;83;20889;-81
2021/10/05 04:54:30;;;;;;;16.93;11.78;;;;;;;10.64;67.53;102453.48;1708552;83;21158;-79
2021/10/05 04:56:57;;;;;;;19.48;12.35;;;;;;;10.65;67.27;102449.51;1708711;84;20921;-78
2021/10/05 04:59:23;;;;;;;19.55;12.45;;;;;;;10.68;67.01;102458.58;1708452;84;20849;-78
2021/10/05 05:01:50;;;;;;;16.85;11.28;;;;;;;10.72;66.94;102464.14;1708453;83;21000;-77
2021/10/05 05:04:17;;;;;;;22.62;12.95;;;;;;;10.74;66.75;102459.71;1708412;83;21410;-78
2021/10/05 05:06:44;;;;;;;20.23;13.03;;;;;;;10.78;66.75;102459.14;1708603;84;21537;-79
2021/10/05 05:09:11;;;;;;;19.45;12.43;;;;;;;10.85;66.87;102463.75;1708365;83;21402;-81
2021/10/05 05:11:38;;;;;;;16.57;12.93;;;;;;;10.98;66.59;102469.90;1708212;83;20976;-79
2021/10/05 05:14:11;;;;;;;14.95;11.83;;;;;;;11.05;66.16;102469.67;1708278;83;21008;-80
2021/10/05 05:16:45;;;;;;;15.65;11.80;;;;;;;11.07;65.29;102470.48;1708465;83;20949;-79
2021/10/05 05:19:15;;;;;;;25.25;14.15;;;;;;;11.02;65.19;102489.48;1708101;84;21209;-82
2021/10/05 05:21:42;;;;;;;18.60;11.73;;;;;;;10.99;65.20;102481.25;1708468;84;21609;-81
2021/10/05 05:24:09;;;;;;;21.50;13.30;;;;;;;10.97;65.09;102479.12;1708848;84;20862;-80
2021/10/05 05:26:36;;;;;;;19.27;12.60;;;;;;;10.98;65.09;102479.52;1708356;83;21541;-80
2021/10/05 05:29:03;;;;;;;17.27;11.60;;;;;;;11.03;65.11;102478.94;1708614;84;21370;-80
2021/10/05 05:31:31;;;;;;;17.95;11.25;;;;;;;11.12;64.82;102483.03;1708599;83;20850;-80
2021/10/05 05:33:58;;;;;;;16.12;11.30;;;;;;;11.22;64.48;102487.06;1708614;84;21538;-82
2021/10/05 05:36:30;;;;;;;24.07;12.30;;;;;;;11.46;64.44;102480.14;1709098;84;20909;-81
2021/10/05 05:38:59;;;;;;;17.35;10.85;;;;;;;12.02;63.99;102477.31;1708718;84;20996;-80
2021/10/05 05:41:26;;;;;;;13.08;9.35;;;;;;;12.84;61.94;102476.88;1709431;84;20897;-80
2021/10/05 05:43:52;;;;;;;15.40;11.33;;;;;;;13.67;60.47;102478.73;1708594;84;21106;-79
2021/10/05 05:46:19;;;;;;;17.23;10.23;;;;;;;14.52;58.06;102477.14;1708795;83;20948;-78
2021/10/05 05:48:46;;;;;;;14.35;9.00;;;;;;;15.33;56.16;102480.28;1708587;84;21039;-79
2021/10/05 05:51:13;;;;;;;14.45;9.08;;;;;;;16.07;53.71;102485.77;1708980;83;20917;-79
2021/10/05 05:53:40;;;;;;;13.88;8.90;;;;;;;16.66;50.35;102484.78;1708638;84;20925;-78
2021/10/05 05:56:06;;;;;;;13.98;9.00;;;;;;;17.11;49.46;102487.11;1709028;83;21517;-79
2021/10/05 05:58:34;;;;;;;14.28;8.33;;;;;;;17.53;48.44;102481.55;1708519;83;20877;-79
2021/10/05 06:01:01;;;;;;;14.95;9.23;;;;;;;17.91;45.92;102478.41;1708791;84;20962;-78
2021/10/05 06:03:28;;;;;;;10.63;8.30;;;;;;;18.23;45.69;102477.28;1708541;84;20893;-79
2021/10/05 06:05:55;;;;;;;9.28;8.48;;;;;;;18.58;44.98;102479.47;1708935;83;21512;-79
2021/10/05 06:08:21;;;;;;;12.37;9.23;;;;;;;18.91;44.26;102483.59;1708462;84;21530;-77
2021/10/05 06:10:48;;;;;;;13.98;8.78;;;;;;;19.25;43.28;102480.89;1708806;83;20897;-77
2021/10/05 06:13:15;;;;;;;12.45;8.60;;;;;;;19.65;42.57;102493.28;1708615;83;20980;-78
2021/10/05 06:15:44;;;;;;;11.50;7.62;;;;;;;19.97;41.39;102484.92;1708513;83;21369;-78
2021/10/05 06:18:11;;;;;;;11.05;8.18;;;;;;;20.33;41.06;102492.11;1708593;84;20905;-77
2021/10/05 06:20:40;;;;;;;10.35;7.97;;;;;;;20.75;40.13;102490.48;1708645;83;20940;-78
2021/10/05 06:23:07;;;;;;;16.45;8.30;;;;;;;21.05;39.56;102488.18;1708903;83;20988;-78
2021/10/05 06:25:39;;;;;;;9.55;8.23;;;;;;;21.40;38.83;102482.50;1708610;84;20869;-79
2021/10/05 06:28:03;;;;;;;10.72;7.87;;;;;;;21.66;37.99;102492.05;1712844;83;21415;-77
2021/10/05 06:30:30;;;;;;;9.58;7.55;;;;;;;21.93;37.44;102488.20;1722236;83;20975;-77
2021/10/05 06:32:59;;;;;;;8.10;7.25;;;;;;;22.19;36.15;102490.61;1722308;82;21204;-78
2021/10/05 06:35:28;;;;;;;8.83;7.62;;;;;;;22.41;35.99;102493.78;1722167;83;20916;-77
2021/10/05 06:37:56;;;;;;;10.58;7.87;;;;;;;22.55;35.77;102489.52;1722340;83;21119;-77
2021/10/05 06:40:25;;;;;;;9.95;7.83;;;;;;;22.75;35.54;102487.89;1722284;83;20959;-77
2021/10/05 06:42:52;;;;;;;10.10;7.20;;;;;;;22.79;35.09;102488.01;1722286;82;20947;-76
2021/10/05 06:45:19;;;;;;;7.62;6.83;;;;;;;22.56;35.08;102484.52;1722303;82;21493;-77
2021/10/05 06:47:46;;;;;;;11.50;7.90;;;;;;;22.15;35.27;102483.34;1722434;83;20920;-77
2021/10/05 06:50:14;;;;;;;13.88;7.35;;;;;;;21.90;35.76;102481.28;1722380;82;21352;-79
2021/10/05 06:52:40;;;;;;;9.53;6.70;;;;;;;21.96;35.82;102486.61;1722411;82;20908;-77
2021/10/05 06:55:08;;;;;;;8.63;6.47;;;;;;;22.19;35.27;102490.16;1722398;82;20960;-77
2021/10/05 06:57:35;;;;;;;12.50;6.83;;;;;;;22.43;33.88;102490.50;1722483;83;21106;-73
2021/10/05 07:00:05;;;;;;;10.20;7.08;;;;;;;22.61;33.50;102479.67;1722301;83;21450;-74
2021/10/05 07:02:33;;;;;;;9.08;6.87;;;;;;;22.84;33.31;102479.60;1722497;82;20915;-74
2021/10/05 07:05:00;;;;;;;9.90;6.17;;;;;;;23.15;32.89;102488.63;1722296;83;21447;-74
2021/10/05 07:07:29;;;;;;;11.30;6.17;;;;;;;23.42;32.63;102492.13;1722336;83;20924;-74
2021/10/05 07:09:58;;;;;;;17.52;6.75;;;;;;;23.50;31.60;102498.16;1722309;82;21487;-74
2021/10/05 07:12:26;;;;;;;10.88;6.03;;;;;;;23.65;30.86;102489.31;1722189;82;20983;-74
2021/10/05 07:14:52;;;;;;;12.80;6.00;;;;;;;23.85;30.92;102487.12;1722201;83;20880;-74
2021/10/05 07:17:20;;;;;;;16.93;6.30;;;;;;;24.12;30.57;102493.26;1722275;82;20948;-73
2021/10/05 07:19:47;;;;;;;15.80;6.08;;;;;;;24.26;30.10;102493.37;1722290;82;20983;-73
2021/10/05 07:22:13;;;;;;;8.18;5.33;;;;;;;24.43;29.99;102493.19;1722328;82;22144;-75
2021/10/05 07:24:40;;;;;;;9.08;5.47;;;;;;;24.71;29.61;102483.54;1722569;83;20907;-75
2021/10/05 07:27:07;;;;;;;13.98;6.37;;;;;;;24.92;28.86;102482.56;1722385;83;21007;-77
2021/10/05 07:29:35;;;;;;;12.00;5.85;;;;;;;25.11;28.54;102494.65;1722504;83;20999;-77
2021/10/05 07:32:02;;;;;;;13.03;5.78;;;;;;;25.34;28.54;102493.03;1722697;82;20920;-76
2021/10/05 07:34:28;;;;;;;11.12;5.22;;;;;;;25.53;28.11;102493.00;1722038;82;21204;-75
2021/10/05 07:36:55;;;;;;;10.05;5.58;;;;;;;25.74;27.60;102487.42;1722562;83;20951;-78
2021/10/05 07:39:22;;;;;;;8.30;5.60;;;;;;;25.93;26.81;102493.78;1722418;82;20984;-78
2021/10/05 07:41:49;;;;;;;8.33;4.30;;;;;;;26.00;26.74;102495.71;1722620;83;20919;-78
2021/10/05 07:44:16;;;;;;;10.93;5.28;;;;;;;26.10;26.81;102492.13;1722112;83;21436;-78
2021/10/05 07:46:43;;;;;;;12.07;5.17;;;;;;;26.21;26.55;102495.97;1722310;82;21525;-78
2021/10/05 07:49:10;;;;;;;5.67;4.85;;;;;;;26.35;25.85;102494.14;1722519;82;21424;-77
2021/10/05 07:51:38;;;;;;;6.35;4.65;;;;;;;26.39;25.97;102496.88;1722146;83;21400;-77
2021/10/05 07:54:05;;;;;;;4.55;4.10;;;;;;;26.52;25.52;102495.66;1722565;82;21205;-77
2021/10/05 07:56:32;;;;;;;11.10;4.65;;;;;;;26.49;24.43;102495.46;1722259;82;20951;-76
2021/10/05 07:58:59;;;;;;;13.68;4.85;;;;;;;26.29;24.66;102506.00;1722209;82;21163;-76
2021/10/05 08:01:26;;;;;;;6.80;5.05;;;;;;;26.09;24.71;102495.83;1722583;83;20936;-77
2021/10/05 08:03:53;;;;;;;8.53;4.20;;;;;;;26.04;25.17;102503.00;1722176;82;20923;-78
2021/10/05 08:06:20;;;;;;;11.03;4.42;;;;;;;26.19;25.38;102500.64;1722122;83;21018;-77
2021/10/05 08:08:46;;;;;;;6.92;4.05;;;;;;;26.38;25.44;102501.05;1722317;82;20963;-79
2021/10/05 08:11:13;;;;;;;9.78;4.72;;;;;;;26.53;25.50;102500.89;1722546;82;21503;-78
2021/10/05 08:13:40;;;;;;;10.32;3.95;;;;;;;26.66;25.15;102497.87;1722156;83;20904;-79
2021/10/05 08:16:07;;;;;;;6.25;4.50;;;;;;;26.88;25.00;102488.00;1722274;82;20906;-79
2021/10/05 08:18:34;;;;;;;5.60;4.20;;;;;;;27.07;24.93;102488.31;1722293;82;20959;-79
2021/10/05 08:21:03;;;;;;;9.75;4.50;;;;;;;27.22;24.93;102488.65;1722573;82;21401;-76
2021/10/05 08:23:31;;;;;;;7.60;4.08;;;;;;;27.37;24.20;102484.03;1722301;83;21969;-78
2021/10/05 08:25:58;;;;;;;6.47;3.87;;;;;;;27.48;24.02;102486.49;1722457;83;20916;-79
2021/10/05 08:28:24;;;;;;;6.05;3.62;;;;;;;27.54;23.63;102485.00;1722212;83;20924;-78
2021/10/05 08:30:51;;;;;;;7.50;3.17;;;;;;;27.63;23.53;102492.97;1722311;83;20916;-77
2021/10/05 08:33:18;;;;;;;7.83;3.00;;;;;;;27.63;21.61;102492.97;1722282;82;21018;-77
2021/10/05 08:35:45;;;;;;;6.05;3.08;;;;;;;27.41;22.37;102484.93;1722496;83;21140;-79
2021/10/05 08:38:12;;;;;;;9.73;3.83;;;;;;;27.33;23.06;102486.72;1722439;83;21041;-78
2021/10/05 08:40:39;;;;;;;5.60;3.50;;;;;;;27.35;22.78;102479.33;1722216;83;21580;-76
2021/10/05 08:43:05;;;;;;;8.58;3.77;;;;;;;27.36;22.69;102485.05;1722669;82;20979;-77
2021/10/05 08:45:33;;;;;;;12.15;3.70;;;;;;;27.36;22.90;102481.00;1722314;83;20876;-78
2021/10/05 08:48:00;;;;;;;7.00;4.00;;;;;;;27.38;22.78;102475.80;1722467;82;21473;-76
2021/10/05 08:50:26;;;;;;;10.18;4.00;;;;;;;27.32;23.04;102479.62;1722195;83;20991;-76
2021/10/05 08:52:53;;;;;;;7.37;4.37;;;;;;;27.30;22.56;102478.42;1722419;82;21494;-76
2021/10/05 08:55:20;;;;;;;10.65;3.90;;;;;;;27.26;22.40;102473.87;1722268;83;20956;-77
2021/10/05 08:57:49;;;;;;;7.37;3.58;;;;;;;27.20;22.04;102478.50;1722590;82;20999;-76
2021/10/05 09:00:17;;;;;;;5.28;3.83;;;;;;;27.07;22.11;102475.36;1722239;82;21102;-75
2021/10/05 09:02:51;;;;;;;5.33;3.47;;;;;;;26.95;22.84;102464.50;1722464;82;20888;-77
2021/10/05 09:05:18;;;;;;;5.95;3.60;;;;;;;27.03;23.42;102465.89;1722069;82;21424;-76
2021/10/05 09:07:51;;;;;;;10.20;3.12;;;;;;;27.19;23.49;102464.70;1722136;83;20908;-77
2021/10/05 09:10:23;;;;;;;9.90;3.72;;;;;;;27.36;23.04;102467.53;1722306;83;21540;-77
2021/10/05 09:12:49;;;;;;;6.10;2.92;;;;;;;27.48;22.59;102475.20;1722501;82;21103;-75
2021/10/05 09:15:18;;;;;;;9.85;3.15;;;;;;;27.49;20.83;102476.05;1722281;83;20944;-75
2021/10/05 09:17:54;;;;;;;6.53;3.05;;;;;;;27.26;21.41;102479.25;1722441;82;20923;-77
2021/10/05 09:20:25;;;;;;;12.37;3.12;;;;;;;26.97;21.23;102470.07;1722249;82;20968;-77
2021/10/05 09:23:06;;;;;;;5.17;2.40;;;;;;;26.82;22.15;102481.88;1722565;83;20956;-79
2021/10/05 09:25:42;;;;;;;6.83;3.10;;;;;;;26.75;21.40;102489.39;1722216;82;21551;-77
2021/10/05 09:28:24;;;;;;;11.18;4.28;;;;;;;26.39;21.36;102483.90;1720114;82;20932;-77
2021/10/05 09:31:06;;;;;;;8.90;3.70;;;;;;;26.05;22.05;102480.48;1713977;82;20939;-78
2021/10/05 09:33:34;;;;;;;8.15;3.40;;;;;;;25.84;22.14;102476.15;1713947;83;20924;-77
2021/10/05 09:36:01;;;;;;;9.78;2.80;;;;;;;25.79;22.91;102473.54;1714319;83;20935;-76
2021/10/05 09:38:29;;;;;;;4.08;2.67;;;;;;;25.84;22.74;102474.80;1714100;83;21561;-78
2021/10/05 09:42:40;;;;;;;10.43;2.15;;;;;;;26.05;22.45;102472.41;1816416;79;23199;-78
2021/10/05 09:45:14;;;;;;;4.40;2.58;;;;;;;26.16;22.35;102461.95;1789515;80;20963;-80
2021/10/05 09:47:46;;;;;;;4.53;2.90;;;;;;;26.15;21.85;102469.69;1788329;80;21142;-79
2021/10/05 09:50:30;;;;;;;9.03;3.58;;;;;;;26.18;22.22;102466.69;1789626;80;21393;-78
2021/10/05 09:52:59;;;;;;;;;;;;;;;26.20;21.86;102464.70;1792195;79;20919;-78
2021/10/05 09:55:29;;;;;;;9.90;2.80;;;;;;;26.15;21.15;102458.94;1788797;80;20426;-81
2021/10/05 09:57:56;;;;;;;8.18;3.22;;;;;;;26.04;21.41;102474.26;1789519;80;20880;-79
2021/10/05 10:00:26;;;;;;;7.22;3.00;;;;;;;26.10;21.70;102466.11;1789607;80;21132;-79
2021/10/05 10:02:53;;;;;;;10.55;4.97;;;;;;;26.22;21.22;102468.92;1789404;80;21045;-77
2021/10/05 10:05:23;;;;;;;9.30;3.35;;;;;;;26.10;21.42;102462.55;1789421;80;21360;-76
2021/10/05 10:07:54;;;;;;;5.95;2.75;;;;;;;26.02;21.25;102470.87;1789602;80;21345;-77
2021/10/05 10:10:24;;;;;;;10.88;3.17;;;;;;;25.96;21.38;102456.67;1789429;80;20908;-77
2021/10/05 10:13:03;;;;;;;11.03;3.25;;;;;;;26.04;21.58;102459.97;1789646;80;21070;-77
2021/10/05 10:15:33;;;;;;;5.60;2.42;;;;;;;26.19;21.69;102458.48;1789141;80;20916;-79
2021/10/05 10:18:09;;;;;;;4.45;2.52;;;;;;;26.40;21.85;102457.36;1789736;80;20931;-79
2021/10/05 10:20:40;;;;;;;4.78;2.42;;;;;;;26.56;21.66;102451.33;1789689;80;20932;-75
2021/10/05 10:23:22;;;;;;;12.88;2.50;;;;;;;26.49;21.82;102455.10;1789655;80;20923;-76
2021/10/05 10:26:07;;;;;;;8.95;2.30;;;;;;;26.05;21.82;102454.42;1789370;80;21588;-78
2021/10/05 10:28:39;;;;;;;8.50;2.60;;;;;;;25.36;21.99;102441.36;1789576;79;20916;-77
2021/10/05 10:31:12;;;;;;;11.03;2.87;;;;;;;24.89;22.82;102450.64;1789443;80;20919;-77
2021/10/05 10:33:48;;;;;;;7.60;2.80;;;;;;;24.77;23.01;102436.53;1789757;80;21429;-77
2021/10/05 10:36:18;;;;;;;9.55;2.50;;;;;;;24.91;23.23;102448.67;1789420;80;20904;-76
2021/10/05 10:38:46;;;;;;;10.88;2.85;;;;;;;25.05;22.22;102431.28;1787869;80;21131;-77
2021/10/05 10:41:16;;;;;;;14.35;2.87;;;;;;;25.15;22.58;102432.12;1787314;80;20995;-77
2021/10/05 10:44:00;;;;;;;8.00;2.00;;;;;;;25.25;22.58;102420.04;1783572;80;21460;-77
2021/10/05 10:46:35;;;;;;;12.55;2.58;;;;;;;25.40;22.08;102436.05;1784379;80;20872;-76
2021/10/05 10:49:06;;;;;;;15.25;2.55;;;;;;;25.22;21.47;102431.42;1783467;80;20896;-78
2021/10/05 10:51:34;;;;;;;18.87;3.30;;;;;;;24.74;22.12;102430.08;1783167;80;21688;-76
2021/10/05 10:54:13;;;;;;;8.88;2.75;;;;;;;24.35;22.58;102430.86;1783367;80;20884;-77
2021/10/05 10:56:40;;;;;;;13.45;2.50;;;;;;;24.10;23.43;102426.87;1783615;80;20892;-78
2021/10/05 10:59:13;;;;;;;13.25;3.77;;;;;;;23.84;23.43;102423.80;1783435;80;20927;-76
2021/10/05 11:01:52;;;;;;;18.95;3.35;;;;;;;23.50;23.84;102442.80;1783624;80;20927;-75
2021/10/05 11:04:20;;;;;;;28.57;4.28;;;;;;;23.02;24.35;102445.14;1783649;80;21555;-75
2021/10/05 11:06:49;;;;;;;11.83;3.20;;;;;;;22.52;25.07;102437.61;1783404;80;20876;-77
2021/10/05 11:09:16;;;;;;;10.72;2.85;;;;;;;22.09;25.49;102443.25;1783477;80;20955;-76
2021/10/05 11:11:48;;;;;;;5.28;3.35;;;;;;;21.83;25.99;102434.66;1783970;80;21542;-77
2021/10/05 11:14:21;;;;;;;5.20;3.02;;;;;;;21.69;26.16;102431.72;1783666;80;21464;-76
2021/10/05 11:16:58;;;;;;;5.97;3.80;;;;;;;21.51;25.97;102450.52;1784109;80;21174;-77
2021/10/05 11:19:37;;;;;;;3.10;2.75;;;;;;;21.24;26.30;102431.62;1783501;80;21436;-76
2021/10/05 11:22:08;;;;;;;13.90;3.12;;;;;;;21.04;26.77;102426.47;1782775;80;21396;-77
2021/10/05 11:24:44;;;;;;;10.45;3.52;;;;;;;20.82;27.37;102444.56;1783550;80;20939;-77
2021/10/05 11:27:20;;;;;;;12.07;4.10;;;;;;;20.57;27.61;102437.55;1782408;80;21441;-77
2021/10/05 11:29:47;;;;;;;7.12;2.85;;;;;;;20.31;28.14;102440.73;1783735;80;21942;-77